sensor_id;sensor_type;location;lat;lon;timestamp;temperature;humidity
18163;DHT22;9206;50.994;4.538;2023-10-19T00:01:31;15.90;99.90
18163;DHT22;9206;50.994;4.538;2023-10-19T00:04:22;15.90;99.90
18163;DHT22;9206;50.994;4.538;2023-10-19T00:07:23;15.90;99.90
18163;DHT22;9206;50.994;4.538;2023-10-19T00:10:14;16.00;99.90
18163;DHT22;9206;50.994;4.538;2023-10-19T00:13:05;16.00;99.90
18163;DHT22;9206;50.994;4.538;2023-10-19T00:16:00;16.00;99.90
18163;DHT22;9206;50.994;4.538;2023-10-19T00:19:00;15.90;99.90
18163;DHT22;9206;50.994;4.538;2023-10-19T00:21:50;15.90;99.90
18163;DHT22;9206;50.994;4.538;2023-10-19T00:24:42;15.90;99.90
18163;DHT22;9206;50.994;4.538;2023-10-19T00:27:36;16.00;99.90
18163;DHT22;9206;50.994;4.538;2023-10-19T00:30:29;16.00;99.90
18163;DHT22;9206;50.994;4.538;2023-10-19T00:33:21;16.00;99.90
18163;DHT22;9206;50.994;4.538;2023-10-19T00:36:22;16.00;99.90
18163;DHT22;9206;50.994;4.538;2023-10-19T00:39:17;16.00;99.90
18163;DHT22;9206;50.994;4.538;2023-10-19T00:42:10;16.10;99.90
18163;DHT22;9206;50.994;4.538;2023-10-19T00:45:05;16.10;99.90
18163;DHT22;9206;50.994;4.538;2023-10-19T00:47:57;16.10;99.90
18163;DHT22;9206;50.994;4.538;2023-10-19T00:50:45;16.10;99.90
18163;DHT22;9206;50.994;4.538;2023-10-19T00:53:50;16.10;99.90
18163;DHT22;9206;50.994;4.538;2023-10-19T00:56:38;16.10;99.90
18163;DHT22;9206;50.994;4.538;2023-10-19T00:59:27;16.10;99.90
18163;DHT22;9206;50.994;4.538;2023-10-19T01:02:22;16.10;99.90
18163;DHT22;9206;50.994;4.538;2023-10-19T01:05:16;16.10;99.90
18163;DHT22;9206;50.994;4.538;2023-10-19T01:08:07;16.00;99.90
18163;DHT22;9206;50.994;4.538;2023-10-19T01:11:09;16.00;99.90
18163;DHT22;9206;50.994;4.538;2023-10-19T01:14:18;16.00;99.90
18163;DHT22;9206;50.994;4.538;2023-10-19T01:17:06;15.90;99.90
18163;DHT22;9206;50.994;4.538;2023-10-19T01:20:04;15.90;99.90
18163;DHT22;9206;50.994;4.538;2023-10-19T01:23:08;15.80;99.90
18163;DHT22;9206;50.994;4.538;2023-10-19T01:26:06;15.90;99.90
18163;DHT22;9206;50.994;4.538;2023-10-19T01:28:56;15.90;99.90
18163;DHT22;9206;50.994;4.538;2023-10-19T01:31:50;15.90;99.90
18163;DHT22;9206;50.994;4.538;2023-10-19T01:34:52;15.90;99.90
18163;DHT22;9206;50.994;4.538;2023-10-19T01:37:46;15.90;99.90
18163;DHT22;9206;50.994;4.538;2023-10-19T01:40:42;15.90;99.90
18163;DHT22;9206;50.994;4.538;2023-10-19T01:43:37;15.90;99.90
18163;DHT22;9206;50.994;4.538;2023-10-19T01:46:33;15.90;99.90
18163;DHT22;9206;50.994;4.538;2023-10-19T01:49:27;15.90;99.90
18163;DHT22;9206;50.994;4.538;2023-10-19T01:52:18;15.90;99.90
18163;DHT22;9206;50.994;4.538;2023-10-19T01:55:08;15.90;99.90
18163;DHT22;9206;50.994;4.538;2023-10-19T01:58:03;15.90;99.90
18163;DHT22;9206;50.994;4.538;2023-10-19T02:00:53;15.90;99.90
18163;DHT22;9206;50.994;4.538;2023-10-19T02:03:49;15.90;99.90
18163;DHT22;9206;50.994;4.538;2023-10-19T02:06:42;15.80;99.90
18163;DHT22;9206;50.994;4.538;2023-10-19T02:09:37;15.90;99.90
18163;DHT22;9206;50.994;4.538;2023-10-19T02:12:31;15.80;99.90
18163;DHT22;9206;50.994;4.538;2023-10-19T02:15:22;15.80;99.90
18163;DHT22;9206;50.994;4.538;2023-10-19T02:18:15;15.80;99.90
18163;DHT22;9206;50.994;4.538;2023-10-19T02:21:03;15.80;99.90
18163;DHT22;9206;50.994;4.538;2023-10-19T02:24:05;15.80;99.90
18163;DHT22;9206;50.994;4.538;2023-10-19T02:26:59;15.70;99.90
18163;DHT22;9206;50.994;4.538;2023-10-19T02:29:53;15.70;99.90
18163;DHT22;9206;50.994;4.538;2023-10-19T02:32:46;15.70;99.90
18163;DHT22;9206;50.994;4.538;2023-10-19T02:35:38;15.80;99.90
18163;DHT22;9206;50.994;4.538;2023-10-19T02:38:26;15.70;99.90
18163;DHT22;9206;50.994;4.538;2023-10-19T02:41:15;15.70;99.90
18163;DHT22;9206;50.994;4.538;2023-10-19T02:44:02;15.70;99.90
18163;DHT22;9206;50.994;4.538;2023-10-19T02:46:56;15.70;99.90
18163;DHT22;9206;50.994;4.538;2023-10-19T02:49:48;15.70;99.90
18163;DHT22;9206;50.994;4.538;2023-10-19T02:52:41;15.60;99.90
18163;DHT22;9206;50.994;4.538;2023-10-19T02:55:34;15.60;99.90
18163;DHT22;9206;50.994;4.538;2023-10-19T02:58:27;15.60;99.90
18163;DHT22;9206;50.994;4.538;2023-10-19T03:01:14;15.60;99.90
18163;DHT22;9206;50.994;4.538;2023-10-19T03:04:05;15.50;99.90
18163;DHT22;9206;50.994;4.538;2023-10-19T03:06:53;15.40;99.90
18163;DHT22;9206;50.994;4.538;2023-10-19T03:09:47;15.30;99.90
18163;DHT22;9206;50.994;4.538;2023-10-19T03:13:00;15.30;99.90
18163;DHT22;9206;50.994;4.538;2023-10-19T03:15:56;15.30;99.90
18163;DHT22;9206;50.994;4.538;2023-10-19T03:18:49;15.20;99.90
18163;DHT22;9206;50.994;4.538;2023-10-19T03:21:38;15.10;99.90
18163;DHT22;9206;50.994;4.538;2023-10-19T03:24:40;15.10;99.90
18163;DHT22;9206;50.994;4.538;2023-10-19T03:27:33;15.00;99.90
18163;DHT22;9206;50.994;4.538;2023-10-19T03:30:20;15.00;99.90
18163;DHT22;9206;50.994;4.538;2023-10-19T03:33:16;15.00;99.90
18163;DHT22;9206;50.994;4.538;2023-10-19T03:36:10;15.00;99.90
18163;DHT22;9206;50.994;4.538;2023-10-19T03:39:05;15.10;99.90
18163;DHT22;9206;50.994;4.538;2023-10-19T03:42:02;15.10;99.90
18163;DHT22;9206;50.994;4.538;2023-10-19T03:44:51;15.10;99.90
18163;DHT22;9206;50.994;4.538;2023-10-19T03:47:47;15.20;99.90
18163;DHT22;9206;50.994;4.538;2023-10-19T03:50:41;15.20;99.90
18163;DHT22;9206;50.994;4.538;2023-10-19T03:53:35;15.30;99.90
18163;DHT22;9206;50.994;4.538;2023-10-19T03:56:24;15.30;99.90
18163;DHT22;9206;50.994;4.538;2023-10-19T03:59:14;15.30;99.90
18163;DHT22;9206;50.994;4.538;2023-10-19T04:02:05;15.40;99.90
18163;DHT22;9206;50.994;4.538;2023-10-19T04:05:01;15.40;99.90
18163;DHT22;9206;50.994;4.538;2023-10-19T04:07:50;15.30;99.90
18163;DHT22;9206;50.994;4.538;2023-10-19T04:10:42;15.30;99.90
18163;DHT22;9206;50.994;4.538;2023-10-19T04:13:33;15.30;99.90
18163;DHT22;9206;50.994;4.538;2023-10-19T04:16:26;15.30;99.90
18163;DHT22;9206;50.994;4.538;2023-10-19T04:19:17;15.20;99.90
18163;DHT22;9206;50.994;4.538;2023-10-19T04:22:07;15.30;99.90
18163;DHT22;9206;50.994;4.538;2023-10-19T04:25:00;15.30;99.90
18163;DHT22;9206;50.994;4.538;2023-10-19T04:27:50;15.20;99.90
18163;DHT22;9206;50.994;4.538;2023-10-19T04:30:40;15.20;99.90
18163;DHT22;9206;50.994;4.538;2023-10-19T04:33:36;15.20;99.90
18163;DHT22;9206;50.994;4.538;2023-10-19T04:36:26;15.20;99.90
18163;DHT22;9206;50.994;4.538;2023-10-19T04:39:19;15.20;99.90
18163;DHT22;9206;50.994;4.538;2023-10-19T04:42:09;15.20;99.90
18163;DHT22;9206;50.994;4.538;2023-10-19T04:44:57;15.20;99.90
18163;DHT22;9206;50.994;4.538;2023-10-19T04:47:50;15.20;99.90
18163;DHT22;9206;50.994;4.538;2023-10-19T04:50:42;15.20;99.90
18163;DHT22;9206;50.994;4.538;2023-10-19T04:53:33;15.20;99.90
18163;DHT22;9206;50.994;4.538;2023-10-19T04:56:28;15.30;99.90
18163;DHT22;9206;50.994;4.538;2023-10-19T04:59:16;15.30;99.90
18163;DHT22;9206;50.994;4.538;2023-10-19T05:02:06;15.20;99.90
18163;DHT22;9206;50.994;4.538;2023-10-19T05:04:55;15.30;99.90
18163;DHT22;9206;50.994;4.538;2023-10-19T05:07:44;15.20;99.90
18163;DHT22;9206;50.994;4.538;2023-10-19T05:10:32;15.20;99.90
18163;DHT22;9206;50.994;4.538;2023-10-19T05:13:22;15.20;99.90
18163;DHT22;9206;50.994;4.538;2023-10-19T05:16:12;15.20;99.90
18163;DHT22;9206;50.994;4.538;2023-10-19T05:19:01;15.20;99.90
18163;DHT22;9206;50.994;4.538;2023-10-19T05:21:56;15.20;99.90
18163;DHT22;9206;50.994;4.538;2023-10-19T05:24:46;15.20;99.90
18163;DHT22;9206;50.994;4.538;2023-10-19T05:27:33;15.20;99.90
18163;DHT22;9206;50.994;4.538;2023-10-19T05:30:23;15.20;99.90
18163;DHT22;9206;50.994;4.538;2023-10-19T05:33:10;15.20;99.90
18163;DHT22;9206;50.994;4.538;2023-10-19T05:35:59;15.20;99.90
18163;DHT22;9206;50.994;4.538;2023-10-19T05:38:49;15.20;99.90
18163;DHT22;9206;50.994;4.538;2023-10-19T05:41:40;15.20;99.90
18163;DHT22;9206;50.994;4.538;2023-10-19T05:44:36;15.20;99.90
18163;DHT22;9206;50.994;4.538;2023-10-19T05:47:25;15.20;99.90
18163;DHT22;9206;50.994;4.538;2023-10-19T05:50:15;15.20;99.90
18163;DHT22;9206;50.994;4.538;2023-10-19T05:53:04;15.20;99.90
18163;DHT22;9206;50.994;4.538;2023-10-19T05:55:52;15.20;99.90
18163;DHT22;9206;50.994;4.538;2023-10-19T05:58:46;15.20;99.90
18163;DHT22;9206;50.994;4.538;2023-10-19T06:01:42;15.20;99.90
18163;DHT22;9206;50.994;4.538;2023-10-19T06:04:33;15.20;99.90
18163;DHT22;9206;50.994;4.538;2023-10-19T06:07:22;15.20;99.90
18163;DHT22;9206;50.994;4.538;2023-10-19T06:10:12;15.20;99.90
18163;DHT22;9206;50.994;4.538;2023-10-19T06:13:08;15.20;99.90
18163;DHT22;9206;50.994;4.538;2023-10-19T06:16:06;15.20;99.90
18163;DHT22;9206;50.994;4.538;2023-10-19T06:18:54;15.20;99.90
18163;DHT22;9206;50.994;4.538;2023-10-19T06:21:43;15.20;99.90
18163;DHT22;9206;50.994;4.538;2023-10-19T06:24:31;15.30;99.90
18163;DHT22;9206;50.994;4.538;2023-10-19T06:27:22;15.20;99.90
18163;DHT22;9206;50.994;4.538;2023-10-19T06:30:12;15.30;99.90
18163;DHT22;9206;50.994;4.538;2023-10-19T06:33:05;15.20;99.90
18163;DHT22;9206;50.994;4.538;2023-10-19T06:35:53;15.30;99.90
18163;DHT22;9206;50.994;4.538;2023-10-19T06:38:41;15.30;99.90
18163;DHT22;9206;50.994;4.538;2023-10-19T06:41:36;15.30;99.90
18163;DHT22;9206;50.994;4.538;2023-10-19T06:44:23;15.30;99.90
18163;DHT22;9206;50.994;4.538;2023-10-19T06:47:30;15.20;99.90
18163;DHT22;9206;50.994;4.538;2023-10-19T06:50:20;15.30;99.90
18163;DHT22;9206;50.994;4.538;2023-10-19T06:53:18;15.20;99.90
18163;DHT22;9206;50.994;4.538;2023-10-19T06:56:07;15.20;99.90
18163;DHT22;9206;50.994;4.538;2023-10-19T06:59:00;15.20;99.90
18163;DHT22;9206;50.994;4.538;2023-10-19T07:01:53;15.20;99.90
18163;DHT22;9206;50.994;4.538;2023-10-19T07:04:48;15.10;99.90
18163;DHT22;9206;50.994;4.538;2023-10-19T07:07:56;15.10;99.90
18163;DHT22;9206;50.994;4.538;2023-10-19T07:10:46;15.10;99.90
18163;DHT22;9206;50.994;4.538;2023-10-19T07:13:35;15.20;99.90
18163;DHT22;9206;50.994;4.538;2023-10-19T07:16:23;15.40;99.90
18163;DHT22;9206;50.994;4.538;2023-10-19T07:19:14;15.50;99.90
18163;DHT22;9206;50.994;4.538;2023-10-19T07:22:04;15.60;99.90
18163;DHT22;9206;50.994;4.538;2023-10-19T07:25:06;15.60;99.90
18163;DHT22;9206;50.994;4.538;2023-10-19T07:27:58;15.70;99.90
18163;DHT22;9206;50.994;4.538;2023-10-19T07:30:47;15.80;99.90
18163;DHT22;9206;50.994;4.538;2023-10-19T07:33:37;15.90;99.90
18163;DHT22;9206;50.994;4.538;2023-10-19T07:36:34;16.00;99.90
18163;DHT22;9206;50.994;4.538;2023-10-19T07:39:23;16.10;99.90
18163;DHT22;9206;50.994;4.538;2023-10-19T07:42:13;16.10;99.90
18163;DHT22;9206;50.994;4.538;2023-10-19T07:45:05;16.20;99.90
18163;DHT22;9206;50.994;4.538;2023-10-19T07:47:53;16.30;99.90
18163;DHT22;9206;50.994;4.538;2023-10-19T07:50:41;16.30;99.90
18163;DHT22;9206;50.994;4.538;2023-10-19T07:53:32;16.30;99.90
18163;DHT22;9206;50.994;4.538;2023-10-19T07:56:21;16.30;99.90
18163;DHT22;9206;50.994;4.538;2023-10-19T07:59:10;16.30;99.90
18163;DHT22;9206;50.994;4.538;2023-10-19T08:02:00;16.40;99.90
18163;DHT22;9206;50.994;4.538;2023-10-19T08:04:52;16.40;99.90
18163;DHT22;9206;50.994;4.538;2023-10-19T08:07:40;16.40;99.90
18163;DHT22;9206;50.994;4.538;2023-10-19T08:10:29;16.40;99.90
18163;DHT22;9206;50.994;4.538;2023-10-19T08:13:22;16.50;99.90
18163;DHT22;9206;50.994;4.538;2023-10-19T08:16:19;16.50;99.90
18163;DHT22;9206;50.994;4.538;2023-10-19T08:19:06;16.60;99.90
18163;DHT22;9206;50.994;4.538;2023-10-19T08:22:02;16.70;99.90
18163;DHT22;9206;50.994;4.538;2023-10-19T08:24:53;16.90;99.90
18163;DHT22;9206;50.994;4.538;2023-10-19T08:27:44;17.00;99.90
18163;DHT22;9206;50.994;4.538;2023-10-19T08:30:35;17.20;99.90
18163;DHT22;9206;50.994;4.538;2023-10-19T08:33:26;18.20;99.90
18163;DHT22;9206;50.994;4.538;2023-10-19T08:36:17;19.50;99.90
18163;DHT22;9206;50.994;4.538;2023-10-19T08:39:11;19.70;99.90
18163;DHT22;9206;50.994;4.538;2023-10-19T08:41:59;19.90;99.90
18163;DHT22;9206;50.994;4.538;2023-10-19T08:44:48;20.80;99.90
18163;DHT22;9206;50.994;4.538;2023-10-19T08:47:36;21.30;99.90
18163;DHT22;9206;50.994;4.538;2023-10-19T08:50:29;21.90;99.90
18163;DHT22;9206;50.994;4.538;2023-10-19T08:53:24;21.90;99.90
18163;DHT22;9206;50.994;4.538;2023-10-19T08:56:11;21.60;99.90
18163;DHT22;9206;50.994;4.538;2023-10-19T08:58:59;20.80;99.90
18163;DHT22;9206;50.994;4.538;2023-10-19T09:01:47;20.00;99.90
18163;DHT22;9206;50.994;4.538;2023-10-19T09:04:41;19.30;99.90
18163;DHT22;9206;50.994;4.538;2023-10-19T09:07:36;18.70;99.90
18163;DHT22;9206;50.994;4.538;2023-10-19T09:10:28;18.50;99.90
18163;DHT22;9206;50.994;4.538;2023-10-19T09:13:17;18.40;99.90
18163;DHT22;9206;50.994;4.538;2023-10-19T09:16:06;18.30;99.90
18163;DHT22;9206;50.994;4.538;2023-10-19T09:18:53;18.20;99.90
18163;DHT22;9206;50.994;4.538;2023-10-19T09:21:42;18.10;99.90
18163;DHT22;9206;50.994;4.538;2023-10-19T09:24:31;17.90;99.90
18163;DHT22;9206;50.994;4.538;2023-10-19T09:27:19;17.80;99.90
18163;DHT22;9206;50.994;4.538;2023-10-19T09:33:22;17.80;99.90
18163;DHT22;9206;50.994;4.538;2023-10-19T09:36:13;17.80;99.90
18163;DHT22;9206;50.994;4.538;2023-10-19T09:39:03;17.70;99.90
18163;DHT22;9206;50.994;4.538;2023-10-19T09:41:53;17.70;99.90
18163;DHT22;9206;50.994;4.538;2023-10-19T09:44:42;17.70;99.90
18163;DHT22;9206;50.994;4.538;2023-10-19T09:47:35;17.60;99.90
18163;DHT22;9206;50.994;4.538;2023-10-19T09:50:26;17.60;99.90
18163;DHT22;9206;50.994;4.538;2023-10-19T09:53:15;17.60;99.90
18163;DHT22;9206;50.994;4.538;2023-10-19T09:56:05;17.60;99.90
18163;DHT22;9206;50.994;4.538;2023-10-19T09:58:59;17.60;99.90
18163;DHT22;9206;50.994;4.538;2023-10-19T10:02:08;17.60;99.90
18163;DHT22;9206;50.994;4.538;2023-10-19T10:05:04;17.60;99.90
18163;DHT22;9206;50.994;4.538;2023-10-19T10:11:23;17.60;99.90
18163;DHT22;9206;50.994;4.538;2023-10-19T10:14:22;17.60;99.90
18163;DHT22;9206;50.994;4.538;2023-10-19T10:17:17;17.60;99.90
18163;DHT22;9206;50.994;4.538;2023-10-19T10:20:31;17.50;99.90
18163;DHT22;9206;50.994;4.538;2023-10-19T10:23:23;17.50;99.90
18163;DHT22;9206;50.994;4.538;2023-10-19T10:26:19;17.50;99.90
18163;DHT22;9206;50.994;4.538;2023-10-19T10:29:12;17.50;99.90
18163;DHT22;9206;50.994;4.538;2023-10-19T10:32:02;17.60;99.90
18163;DHT22;9206;50.994;4.538;2023-10-19T10:34:51;17.80;99.90
18163;DHT22;9206;50.994;4.538;2023-10-19T10:37:56;18.10;99.90
18163;DHT22;9206;50.994;4.538;2023-10-19T10:40:50;18.20;99.90
18163;DHT22;9206;50.994;4.538;2023-10-19T10:43:50;18.20;99.90
18163;DHT22;9206;50.994;4.538;2023-10-19T10:46:40;18.30;99.90
18163;DHT22;9206;50.994;4.538;2023-10-19T10:49:49;18.40;99.90
18163;DHT22;9206;50.994;4.538;2023-10-19T10:52:37;18.50;99.90
18163;DHT22;9206;50.994;4.538;2023-10-19T10:55:31;18.60;99.90
18163;DHT22;9206;50.994;4.538;2023-10-19T10:58:20;18.60;99.90
18163;DHT22;9206;50.994;4.538;2023-10-19T11:01:34;18.70;99.90
18163;DHT22;9206;50.994;4.538;2023-10-19T11:04:28;18.60;99.90
18163;DHT22;9206;50.994;4.538;2023-10-19T11:07:20;18.60;99.90
18163;DHT22;9206;50.994;4.538;2023-10-19T11:10:10;18.50;99.90
18163;DHT22;9206;50.994;4.538;2023-10-19T11:13:05;18.40;99.90
18163;DHT22;9206;50.994;4.538;2023-10-19T11:15:58;18.30;99.90
18163;DHT22;9206;50.994;4.538;2023-10-19T11:18:50;18.20;99.90
18163;DHT22;9206;50.994;4.538;2023-10-19T11:21:37;18.00;99.90
18163;DHT22;9206;50.994;4.538;2023-10-19T11:24:29;17.90;99.90
18163;DHT22;9206;50.994;4.538;2023-10-19T11:27:33;17.80;99.90
18163;DHT22;9206;50.994;4.538;2023-10-19T11:30:28;17.70;99.90
18163;DHT22;9206;50.994;4.538;2023-10-19T11:33:17;17.60;99.90
18163;DHT22;9206;50.994;4.538;2023-10-19T11:36:16;17.50;99.90
18163;DHT22;9206;50.994;4.538;2023-10-19T11:39:10;17.40;99.90
18163;DHT22;9206;50.994;4.538;2023-10-19T11:41:59;17.40;99.90
18163;DHT22;9206;50.994;4.538;2023-10-19T11:45:00;17.40;99.90
18163;DHT22;9206;50.994;4.538;2023-10-19T11:47:52;17.50;99.90
18163;DHT22;9206;50.994;4.538;2023-10-19T11:50:45;17.50;99.90
18163;DHT22;9206;50.994;4.538;2023-10-19T11:53:37;17.50;99.90
18163;DHT22;9206;50.994;4.538;2023-10-19T11:56:25;17.50;99.90
18163;DHT22;9206;50.994;4.538;2023-10-19T11:59:19;17.50;99.90
18163;DHT22;9206;50.994;4.538;2023-10-19T12:02:08;17.50;99.90
18163;DHT22;9206;50.994;4.538;2023-10-19T12:04:57;17.50;99.90
18163;DHT22;9206;50.994;4.538;2023-10-19T12:07:50;17.40;99.90
18163;DHT22;9206;50.994;4.538;2023-10-19T12:10:38;17.40;99.90
18163;DHT22;9206;50.994;4.538;2023-10-19T12:13:45;17.50;99.90
18163;DHT22;9206;50.994;4.538;2023-10-19T12:16:37;17.50;99.90
18163;DHT22;9206;50.994;4.538;2023-10-19T12:19:29;17.50;99.90
18163;DHT22;9206;50.994;4.538;2023-10-19T12:22:16;17.50;99.90
18163;DHT22;9206;50.994;4.538;2023-10-19T12:25:05;17.50;99.90
18163;DHT22;9206;50.994;4.538;2023-10-19T12:27:53;17.40;99.90
18163;DHT22;9206;50.994;4.538;2023-10-19T12:30:42;17.50;99.90
18163;DHT22;9206;50.994;4.538;2023-10-19T12:33:33;17.40;99.90
18163;DHT22;9206;50.994;4.538;2023-10-19T12:36:26;17.40;99.90
18163;DHT22;9206;50.994;4.538;2023-10-19T12:39:24;17.40;99.90
18163;DHT22;9206;50.994;4.538;2023-10-19T12:42:29;17.30;99.90
18163;DHT22;9206;50.994;4.538;2023-10-19T12:45:17;17.40;99.90
18163;DHT22;9206;50.994;4.538;2023-10-19T12:48:07;17.40;99.90
18163;DHT22;9206;50.994;4.538;2023-10-19T12:51:03;17.30;99.90
18163;DHT22;9206;50.994;4.538;2023-10-19T12:53:52;17.40;99.90
18163;DHT22;9206;50.994;4.538;2023-10-19T12:56:46;17.60;99.90
18163;DHT22;9206;50.994;4.538;2023-10-19T12:59:39;17.90;99.90
18163;DHT22;9206;50.994;4.538;2023-10-19T13:02:35;18.20;99.90
18163;DHT22;9206;50.994;4.538;2023-10-19T13:05:32;18.40;99.90
18163;DHT22;9206;50.994;4.538;2023-10-19T13:08:21;18.60;99.90
18163;DHT22;9206;50.994;4.538;2023-10-19T13:11:09;19.60;99.90
18163;DHT22;9206;50.994;4.538;2023-10-19T13:14:02;21.60;99.90
18163;DHT22;9206;50.994;4.538;2023-10-19T13:16:58;21.60;99.90
18163;DHT22;9206;50.994;4.538;2023-10-19T13:19:48;21.20;99.90
18163;DHT22;9206;50.994;4.538;2023-10-19T13:22:37;22.30;99.90
18163;DHT22;9206;50.994;4.538;2023-10-19T13:25:29;23.40;99.90
18163;DHT22;9206;50.994;4.538;2023-10-19T13:28:28;24.30;99.90
18163;DHT22;9206;50.994;4.538;2023-10-19T13:31:18;25.00;99.90
18163;DHT22;9206;50.994;4.538;2023-10-19T13:34:09;24.70;99.90
18163;DHT22;9206;50.994;4.538;2023-10-19T13:37:00;24.10;99.90
18163;DHT22;9206;50.994;4.538;2023-10-19T13:39:49;23.70;99.90
18163;DHT22;9206;50.994;4.538;2023-10-19T13:42:39;23.60;99.90
18163;DHT22;9206;50.994;4.538;2023-10-19T13:45:32;23.10;99.90
18163;DHT22;9206;50.994;4.538;2023-10-19T13:48:25;22.20;99.90
18163;DHT22;9206;50.994;4.538;2023-10-19T13:51:16;22.60;99.90
18163;DHT22;9206;50.994;4.538;2023-10-19T13:54:17;22.30;99.90
18163;DHT22;9206;50.994;4.538;2023-10-19T13:57:06;21.40;99.90
18163;DHT22;9206;50.994;4.538;2023-10-19T13:59:56;20.80;99.90
18163;DHT22;9206;50.994;4.538;2023-10-19T14:02:49;20.40;99.90
18163;DHT22;9206;50.994;4.538;2023-10-19T14:05:38;20.50;99.90
18163;DHT22;9206;50.994;4.538;2023-10-19T14:08:28;21.10;99.90
18163;DHT22;9206;50.994;4.538;2023-10-19T14:11:23;21.10;99.90
18163;DHT22;9206;50.994;4.538;2023-10-19T14:14:13;21.40;99.90
18163;DHT22;9206;50.994;4.538;2023-10-19T14:17:02;22.70;99.90
18163;DHT22;9206;50.994;4.538;2023-10-19T14:19:51;23.70;99.90
18163;DHT22;9206;50.994;4.538;2023-10-19T14:22:40;24.10;99.90
18163;DHT22;9206;50.994;4.538;2023-10-19T14:25:31;24.50;99.90
18163;DHT22;9206;50.994;4.538;2023-10-19T14:28:20;24.60;99.90
18163;DHT22;9206;50.994;4.538;2023-10-19T14:31:08;23.00;99.90
18163;DHT22;9206;50.994;4.538;2023-10-19T14:34:01;22.10;99.90
18163;DHT22;9206;50.994;4.538;2023-10-19T14:36:52;22.20;99.90
18163;DHT22;9206;50.994;4.538;2023-10-19T14:39:40;22.30;99.90
18163;DHT22;9206;50.994;4.538;2023-10-19T14:42:27;22.40;99.90
18163;DHT22;9206;50.994;4.538;2023-10-19T14:45:27;22.50;99.90
18163;DHT22;9206;50.994;4.538;2023-10-19T14:48:22;22.90;99.90
18163;DHT22;9206;50.994;4.538;2023-10-19T14:51:11;22.90;99.90
18163;DHT22;9206;50.994;4.538;2023-10-19T14:54:00;22.60;99.90
18163;DHT22;9206;50.994;4.538;2023-10-19T14:56:47;22.00;99.90
18163;DHT22;9206;50.994;4.538;2023-10-19T14:59:36;22.10;99.90
18163;DHT22;9206;50.994;4.538;2023-10-19T15:02:26;22.70;99.90
18163;DHT22;9206;50.994;4.538;2023-10-19T15:05:16;22.70;99.90
18163;DHT22;9206;50.994;4.538;2023-10-19T15:08:05;22.00;99.90
18163;DHT22;9206;50.994;4.538;2023-10-19T15:10:53;22.20;99.90
18163;DHT22;9206;50.994;4.538;2023-10-19T15:13:43;22.40;99.90
18163;DHT22;9206;50.994;4.538;2023-10-19T15:16:31;21.90;99.90
18163;DHT22;9206;50.994;4.538;2023-10-19T15:19:19;22.30;99.90
18163;DHT22;9206;50.994;4.538;2023-10-19T15:22:12;22.70;99.90
18163;DHT22;9206;50.994;4.538;2023-10-19T15:25:05;21.50;99.90
18163;DHT22;9206;50.994;4.538;2023-10-19T15:27:55;20.80;99.90
18163;DHT22;9206;50.994;4.538;2023-10-19T15:30:42;20.20;99.90
18163;DHT22;9206;50.994;4.538;2023-10-19T15:33:36;19.90;99.90
18163;DHT22;9206;50.994;4.538;2023-10-19T15:36:24;19.60;99.90
18163;DHT22;9206;50.994;4.538;2023-10-19T15:39:18;19.30;99.90
18163;DHT22;9206;50.994;4.538;2023-10-19T15:42:13;19.10;99.90
18163;DHT22;9206;50.994;4.538;2023-10-19T15:45:01;19.00;99.90
18163;DHT22;9206;50.994;4.538;2023-10-19T15:47:52;18.90;99.90
18163;DHT22;9206;50.994;4.538;2023-10-19T15:50:46;18.70;99.90
18163;DHT22;9206;50.994;4.538;2023-10-19T15:53:35;18.60;99.90
18163;DHT22;9206;50.994;4.538;2023-10-19T15:56:24;18.50;99.90
18163;DHT22;9206;50.994;4.538;2023-10-19T15:59:21;18.50;99.90
18163;DHT22;9206;50.994;4.538;2023-10-19T16:02:10;18.40;99.90
18163;DHT22;9206;50.994;4.538;2023-10-19T16:04:57;18.30;99.90
18163;DHT22;9206;50.994;4.538;2023-10-19T16:07:50;18.30;99.90
18163;DHT22;9206;50.994;4.538;2023-10-19T16:10:41;18.30;99.90
18163;DHT22;9206;50.994;4.538;2023-10-19T16:13:28;18.20;99.90
18163;DHT22;9206;50.994;4.538;2023-10-19T16:16:19;18.20;99.90
18163;DHT22;9206;50.994;4.538;2023-10-19T16:19:18;18.20;99.90
18163;DHT22;9206;50.994;4.538;2023-10-19T16:25:03;18.10;99.90
18163;DHT22;9206;50.994;4.538;2023-10-19T16:28:07;18.10;99.90
18163;DHT22;9206;50.994;4.538;2023-10-19T16:31:12;18.00;99.90
18163;DHT22;9206;50.994;4.538;2023-10-19T16:34:08;17.90;99.90
18163;DHT22;9206;50.994;4.538;2023-10-19T16:36:56;17.80;99.90
18163;DHT22;9206;50.994;4.538;2023-10-19T16:39:55;17.60;99.90
18163;DHT22;9206;50.994;4.538;2023-10-19T16:42:48;17.60;99.90
18163;DHT22;9206;50.994;4.538;2023-10-19T16:45:37;17.50;99.90
18163;DHT22;9206;50.994;4.538;2023-10-19T16:48:24;17.30;99.90
18163;DHT22;9206;50.994;4.538;2023-10-19T16:51:13;17.30;99.90
18163;DHT22;9206;50.994;4.538;2023-10-19T16:54:01;17.10;99.90
18163;DHT22;9206;50.994;4.538;2023-10-19T16:56:51;17.00;99.90
18163;DHT22;9206;50.994;4.538;2023-10-19T16:59:38;16.90;99.90
18163;DHT22;9206;50.994;4.538;2023-10-19T17:02:26;16.90;99.90
18163;DHT22;9206;50.994;4.538;2023-10-19T17:05:15;16.80;99.90
18163;DHT22;9206;50.994;4.538;2023-10-19T17:08:07;16.80;99.90
18163;DHT22;9206;50.994;4.538;2023-10-19T17:10:55;16.70;99.90
18163;DHT22;9206;50.994;4.538;2023-10-19T17:13:44;16.70;99.90
18163;DHT22;9206;50.994;4.538;2023-10-19T17:16:35;16.60;99.90
18163;DHT22;9206;50.994;4.538;2023-10-19T17:19:25;16.60;99.90
18163;DHT22;9206;50.994;4.538;2023-10-19T17:22:13;16.50;99.90
18163;DHT22;9206;50.994;4.538;2023-10-19T17:25:02;16.50;99.90
18163;DHT22;9206;50.994;4.538;2023-10-19T17:27:50;16.40;99.90
18163;DHT22;9206;50.994;4.538;2023-10-19T17:30:39;16.30;99.90
18163;DHT22;9206;50.994;4.538;2023-10-19T17:33:26;16.30;99.90
18163;DHT22;9206;50.994;4.538;2023-10-19T17:36:16;16.20;99.90
18163;DHT22;9206;50.994;4.538;2023-10-19T17:39:08;16.10;99.90
18163;DHT22;9206;50.994;4.538;2023-10-19T17:42:05;16.00;99.90
18163;DHT22;9206;50.994;4.538;2023-10-19T17:44:55;15.90;99.90
18163;DHT22;9206;50.994;4.538;2023-10-19T17:47:43;15.80;99.90
18163;DHT22;9206;50.994;4.538;2023-10-19T17:50:32;15.80;99.90
18163;DHT22;9206;50.994;4.538;2023-10-19T17:53:19;15.80;99.90
18163;DHT22;9206;50.994;4.538;2023-10-19T17:56:07;15.80;99.90
18163;DHT22;9206;50.994;4.538;2023-10-19T17:58:57;15.70;99.90
18163;DHT22;9206;50.994;4.538;2023-10-19T18:01:47;15.70;99.90
18163;DHT22;9206;50.994;4.538;2023-10-19T18:04:36;15.70;99.90
18163;DHT22;9206;50.994;4.538;2023-10-19T18:07:29;15.60;99.90
18163;DHT22;9206;50.994;4.538;2023-10-19T18:10:17;15.60;99.90
18163;DHT22;9206;50.994;4.538;2023-10-19T18:13:11;15.60;99.90
18163;DHT22;9206;50.994;4.538;2023-10-19T18:16:04;15.50;99.90
18163;DHT22;9206;50.994;4.538;2023-10-19T18:18:52;15.50;99.90
18163;DHT22;9206;50.994;4.538;2023-10-19T18:21:41;15.50;99.90
18163;DHT22;9206;50.994;4.538;2023-10-19T18:24:28;15.50;99.90
18163;DHT22;9206;50.994;4.538;2023-10-19T18:27:21;15.50;99.90
18163;DHT22;9206;50.994;4.538;2023-10-19T18:30:09;15.50;99.90
18163;DHT22;9206;50.994;4.538;2023-10-19T18:33:03;15.50;99.90